sensor_id;sensor_type;location;lat;lon;timestamp;temperature;humidity
25360;DHT22;13311;51.386;0.016;2023-05-19T00:04:15;14.20;84.60
25360;DHT22;13311;51.386;0.016;2023-05-19T00:09:17;14.20;85.10
25360;DHT22;13311;51.386;0.016;2023-05-19T00:14:18;14.00;85.00
25360;DHT22;13311;51.386;0.016;2023-05-19T00:19:19;13.80;85.70
25360;DHT22;13311;51.386;0.016;2023-05-19T00:24:19;13.70;86.50
25360;DHT22;13311;51.386;0.016;2023-05-19T00:29:20;13.70;87.10
25360;DHT22;13311;51.386;0.016;2023-05-19T00:34:21;13.60;87.20
25360;DHT22;13311;51.386;0.016;2023-05-19T00:39:22;13.50;87.40
25360;DHT22;13311;51.386;0.016;2023-05-19T00:44:22;13.40;88.30
25360;DHT22;13311;51.386;0.016;2023-05-19T00:49:23;13.40;88.80
25360;DHT22;13311;51.386;0.016;2023-05-19T00:54:24;13.40;88.60
25360;DHT22;13311;51.386;0.016;2023-05-19T00:59:25;13.40;88.90
25360;DHT22;13311;51.386;0.016;2023-05-19T01:04:26;13.40;88.80
25360;DHT22;13311;51.386;0.016;2023-05-19T01:09:26;13.40;88.80
25360;DHT22;13311;51.386;0.016;2023-05-19T01:14:27;13.40;89.00
25360;DHT22;13311;51.386;0.016;2023-05-19T01:30:50;13.30;89.80
25360;DHT22;13311;51.386;0.016;2023-05-19T01:35:52;13.30;89.90
25360;DHT22;13311;51.386;0.016;2023-05-19T01:40:55;13.20;90.00
25360;DHT22;13311;51.386;0.016;2023-05-19T01:45:57;13.30;90.00
25360;DHT22;13311;51.386;0.016;2023-05-19T01:50:58;13.30;90.00
25360;DHT22;13311;51.386;0.016;2023-05-19T01:55:59;13.30;90.00
25360;DHT22;13311;51.386;0.016;2023-05-19T02:01:19;13.20;89.80
25360;DHT22;13311;51.386;0.016;2023-05-19T02:06:42;13.20;90.00
25360;DHT22;13311;51.386;0.016;2023-05-19T02:17:36;13.30;89.60
25360;DHT22;13311;51.386;0.016;2023-05-19T02:22:40;13.10;90.00
25360;DHT22;13311;51.386;0.016;2023-05-19T02:27:41;13.10;90.10
25360;DHT22;13311;51.386;0.016;2023-05-19T02:32:42;13.10;90.20
25360;DHT22;13311;51.386;0.016;2023-05-19T02:37:46;13.10;90.20
25360;DHT22;13311;51.386;0.016;2023-05-19T02:42:46;13.20;90.20
25360;DHT22;13311;51.386;0.016;2023-05-19T02:47:47;13.20;90.20
25360;DHT22;13311;51.386;0.016;2023-05-19T02:52:48;13.20;90.20
25360;DHT22;13311;51.386;0.016;2023-05-19T02:57:48;13.20;90.20
25360;DHT22;13311;51.386;0.016;2023-05-19T03:02:49;13.20;90.20
25360;DHT22;13311;51.386;0.016;2023-05-19T03:07:52;13.10;90.30
25360;DHT22;13311;51.386;0.016;2023-05-19T03:12:52;13.10;90.30
25360;DHT22;13311;51.386;0.016;2023-05-19T03:17:53;13.00;90.40
25360;DHT22;13311;51.386;0.016;2023-05-19T03:22:54;13.00;90.60
25360;DHT22;13311;51.386;0.016;2023-05-19T03:27:55;12.90;90.60
25360;DHT22;13311;51.386;0.016;2023-05-19T03:32:56;12.90;90.50
25360;DHT22;13311;51.386;0.016;2023-05-19T03:37:56;12.90;90.70
25360;DHT22;13311;51.386;0.016;2023-05-19T03:42:57;12.80;90.90
25360;DHT22;13311;51.386;0.016;2023-05-19T03:48:00;12.80;90.70
25360;DHT22;13311;51.386;0.016;2023-05-19T03:53:00;12.70;90.80
25360;DHT22;13311;51.386;0.016;2023-05-19T03:58:02;12.60;90.90
25360;DHT22;13311;51.386;0.016;2023-05-19T04:03:03;12.60;91.10
25360;DHT22;13311;51.386;0.016;2023-05-19T04:08:03;12.60;91.20
25360;DHT22;13311;51.386;0.016;2023-05-19T04:13:04;12.60;91.10
25360;DHT22;13311;51.386;0.016;2023-05-19T04:18:05;12.50;91.20
25360;DHT22;13311;51.386;0.016;2023-05-19T04:23:06;12.40;91.30
25360;DHT22;13311;51.386;0.016;2023-05-19T04:28:07;12.40;91.30
25360;DHT22;13311;51.386;0.016;2023-05-19T04:33:08;12.40;91.20
25360;DHT22;13311;51.386;0.016;2023-05-19T04:38:09;12.50;91.30
25360;DHT22;13311;51.386;0.016;2023-05-19T04:43:11;12.50;91.30
25360;DHT22;13311;51.386;0.016;2023-05-19T04:48:12;12.50;91.40
25360;DHT22;13311;51.386;0.016;2023-05-19T04:53:14;12.60;91.40
25360;DHT22;13311;51.386;0.016;2023-05-19T04:58:14;12.70;91.40
25360;DHT22;13311;51.386;0.016;2023-05-19T05:03:16;12.80;91.30
25360;DHT22;13311;51.386;0.016;2023-05-19T05:08:17;12.90;91.20
25360;DHT22;13311;51.386;0.016;2023-05-19T05:13:23;13.00;91.20
25360;DHT22;13311;51.386;0.016;2023-05-19T05:18:24;13.00;91.10
25360;DHT22;13311;51.386;0.016;2023-05-19T05:23:26;13.20;91.10
25360;DHT22;13311;51.386;0.016;2023-05-19T05:28:27;13.30;90.90
25360;DHT22;13311;51.386;0.016;2023-05-19T05:33:27;13.50;90.60
25360;DHT22;13311;51.386;0.016;2023-05-19T05:38:28;13.60;90.60
25360;DHT22;13311;51.386;0.016;2023-05-19T05:43:29;13.80;90.20
25360;DHT22;13311;51.386;0.016;2023-05-19T05:48:30;13.90;90.10
25360;DHT22;13311;51.386;0.016;2023-05-19T05:53:34;14.00;89.90
25360;DHT22;13311;51.386;0.016;2023-05-19T05:58:37;14.10;89.70
25360;DHT22;13311;51.386;0.016;2023-05-19T06:03:40;14.10;89.80
25360;DHT22;13311;51.386;0.016;2023-05-19T06:08:43;14.10;90.20
25360;DHT22;13311;51.386;0.016;2023-05-19T06:13:44;14.10;90.10
25360;DHT22;13311;51.386;0.016;2023-05-19T06:18:45;14.20;90.30
25360;DHT22;13311;51.386;0.016;2023-05-19T06:23:45;14.50;90.40
25360;DHT22;13311;51.386;0.016;2023-05-19T06:28:46;14.70;90.20
25360;DHT22;13311;51.386;0.016;2023-05-19T06:33:47;14.90;90.00
25360;DHT22;13311;51.386;0.016;2023-05-19T06:38:48;15.30;89.50
25360;DHT22;13311;51.386;0.016;2023-05-19T06:43:48;15.40;88.30
25360;DHT22;13311;51.386;0.016;2023-05-19T06:48:49;15.40;87.50
25360;DHT22;13311;51.386;0.016;2023-05-19T06:53:50;15.40;88.50
25360;DHT22;13311;51.386;0.016;2023-05-19T06:58:51;15.40;87.90
25360;DHT22;13311;51.386;0.016;2023-05-19T07:03:52;15.20;88.20
25360;DHT22;13311;51.386;0.016;2023-05-19T07:08:52;15.20;89.30
25360;DHT22;13311;51.386;0.016;2023-05-19T07:13:53;15.30;88.80
25360;DHT22;13311;51.386;0.016;2023-05-19T07:18:54;15.00;87.40
25360;DHT22;13311;51.386;0.016;2023-05-19T07:23:54;14.90;88.10
25360;DHT22;13311;51.386;0.016;2023-05-19T07:28:55;14.70;89.50
25360;DHT22;13311;51.386;0.016;2023-05-19T07:33:57;14.70;89.20
25360;DHT22;13311;51.386;0.016;2023-05-19T07:38:58;14.80;89.20
25360;DHT22;13311;51.386;0.016;2023-05-19T07:43:59;15.00;88.00
25360;DHT22;13311;51.386;0.016;2023-05-19T07:49:00;15.00;88.10
25360;DHT22;13311;51.386;0.016;2023-05-19T07:54:00;14.90;88.20
25360;DHT22;13311;51.386;0.016;2023-05-19T07:59:02;15.00;89.00
25360;DHT22;13311;51.386;0.016;2023-05-19T08:04:04;15.30;88.20
25360;DHT22;13311;51.386;0.016;2023-05-19T08:09:05;15.50;87.60
25360;DHT22;13311;51.386;0.016;2023-05-19T08:14:05;15.70;86.30
25360;DHT22;13311;51.386;0.016;2023-05-19T08:19:06;15.90;85.80
25360;DHT22;13311;51.386;0.016;2023-05-19T08:24:08;16.00;84.80
25360;DHT22;13311;51.386;0.016;2023-05-19T08:29:08;16.20;83.90
25360;DHT22;13311;51.386;0.016;2023-05-19T08:34:09;16.40;83.50
25360;DHT22;13311;51.386;0.016;2023-05-19T08:39:10;16.70;82.80
25360;DHT22;13311;51.386;0.016;2023-05-19T08:44:12;16.70;81.70
25360;DHT22;13311;51.386;0.016;2023-05-19T08:49:14;17.00;84.00
25360;DHT22;13311;51.386;0.016;2023-05-19T08:54:20;17.10;83.40
25360;DHT22;13311;51.386;0.016;2023-05-19T08:59:25;17.10;82.80
25360;DHT22;13311;51.386;0.016;2023-05-19T09:04:26;17.10;80.00
25360;DHT22;13311;51.386;0.016;2023-05-19T09:09:28;16.90;81.70
25360;DHT22;13311;51.386;0.016;2023-05-19T09:14:29;17.00;81.00
25360;DHT22;13311;51.386;0.016;2023-05-19T09:19:32;17.00;77.90
25360;DHT22;13311;51.386;0.016;2023-05-19T09:24:33;16.90;82.60
25360;DHT22;13311;51.386;0.016;2023-05-19T09:29:34;17.00;85.20
25360;DHT22;13311;51.386;0.016;2023-05-19T09:34:40;17.10;85.10
25360;DHT22;13311;51.386;0.016;2023-05-19T09:39:43;17.20;84.10
25360;DHT22;13311;51.386;0.016;2023-05-19T09:44:48;17.20;83.00
25360;DHT22;13311;51.386;0.016;2023-05-19T09:49:50;17.10;84.00
25360;DHT22;13311;51.386;0.016;2023-05-19T09:54:52;16.80;78.90
25360;DHT22;13311;51.386;0.016;2023-05-19T09:59:55;16.30;81.40
25360;DHT22;13311;51.386;0.016;2023-05-19T10:04:57;16.20;82.70
25360;DHT22;13311;51.386;0.016;2023-05-19T10:09:58;15.90;83.40
25360;DHT22;13311;51.386;0.016;2023-05-19T10:15:00;16.00;84.60
25360;DHT22;13311;51.386;0.016;2023-05-19T10:20:01;16.10;80.10
25360;DHT22;13311;51.386;0.016;2023-05-19T10:25:05;16.20;80.40
25360;DHT22;13311;51.386;0.016;2023-05-19T10:30:11;16.30;81.40
25360;DHT22;13311;51.386;0.016;2023-05-19T10:46:28;16.50;81.80
25360;DHT22;13311;51.386;0.016;2023-05-19T10:51:31;16.60;81.50
25360;DHT22;13311;51.386;0.016;2023-05-19T10:56:33;16.60;81.50
25360;DHT22;13311;51.386;0.016;2023-05-19T11:01:35;16.70;81.80
25360;DHT22;13311;51.386;0.016;2023-05-19T11:06:37;16.90;81.70
25360;DHT22;13311;51.386;0.016;2023-05-19T11:11:46;17.10;81.30
25360;DHT22;13311;51.386;0.016;2023-05-19T11:16:50;17.60;81.60
25360;DHT22;13311;51.386;0.016;2023-05-19T11:21:52;17.90;80.40
25360;DHT22;13311;51.386;0.016;2023-05-19T11:26:56;17.60;79.40
25360;DHT22;13311;51.386;0.016;2023-05-19T11:31:58;17.50;80.80
25360;DHT22;13311;51.386;0.016;2023-05-19T11:37:00;17.50;80.30
25360;DHT22;13311;51.386;0.016;2023-05-19T11:42:01;17.70;80.40
25360;DHT22;13311;51.386;0.016;2023-05-19T11:47:02;18.00;79.80
25360;DHT22;13311;51.386;0.016;2023-05-19T11:52:04;18.30;78.90
25360;DHT22;13311;51.386;0.016;2023-05-19T11:57:06;18.40;78.20
25360;DHT22;13311;51.386;0.016;2023-05-19T12:02:20;18.50;77.70
25360;DHT22;13311;51.386;0.016;2023-05-19T12:07:22;18.60;76.10
25360;DHT22;13311;51.386;0.016;2023-05-19T12:12:23;18.70;75.70
25360;DHT22;13311;51.386;0.016;2023-05-19T12:17:24;18.60;76.90
25360;DHT22;13311;51.386;0.016;2023-05-19T12:22:25;18.80;77.20
25360;DHT22;13311;51.386;0.016;2023-05-19T12:27:26;19.00;75.20
25360;DHT22;13311;51.386;0.016;2023-05-19T12:32:27;19.40;71.60
25360;DHT22;13311;51.386;0.016;2023-05-19T12:37:28;19.70;70.20
25360;DHT22;13311;51.386;0.016;2023-05-19T12:42:32;20.00;67.00
25360;DHT22;13311;51.386;0.016;2023-05-19T12:47:35;20.00;64.20
25360;DHT22;13311;51.386;0.016;2023-05-19T12:52:47;20.10;66.40
25360;DHT22;13311;51.386;0.016;2023-05-19T12:57:51;20.20;67.60
25360;DHT22;13311;51.386;0.016;2023-05-19T13:02:59;20.30;67.60
25360;DHT22;13311;51.386;0.016;2023-05-19T13:08:08;20.10;69.50
25360;DHT22;13311;51.386;0.016;2023-05-19T13:13:10;19.90;71.00
25360;DHT22;13311;51.386;0.016;2023-05-19T13:18:12;19.80;70.70
25360;DHT22;13311;51.386;0.016;2023-05-19T13:23:13;19.90;71.30
25360;DHT22;13311;51.386;0.016;2023-05-19T13:28:15;19.90;72.20
25360;DHT22;13311;51.386;0.016;2023-05-19T13:33:15;20.10;71.70
25360;DHT22;13311;51.386;0.016;2023-05-19T13:38:16;20.30;71.60
25360;DHT22;13311;51.386;0.016;2023-05-19T13:43:17;20.10;70.40
25360;DHT22;13311;51.386;0.016;2023-05-19T13:48:17;20.10;71.10
25360;DHT22;13311;51.386;0.016;2023-05-19T13:53:18;20.20;68.30
25360;DHT22;13311;51.386;0.016;2023-05-19T13:58:19;20.40;69.40
25360;DHT22;13311;51.386;0.016;2023-05-19T14:03:20;20.40;67.50
25360;DHT22;13311;51.386;0.016;2023-05-19T14:08:20;20.50;67.20
25360;DHT22;13311;51.386;0.016;2023-05-19T14:13:22;20.50;67.60
25360;DHT22;13311;51.386;0.016;2023-05-19T14:18:23;20.40;67.80
25360;DHT22;13311;51.386;0.016;2023-05-19T14:23:23;20.60;69.40
25360;DHT22;13311;51.386;0.016;2023-05-19T14:28:24;20.40;67.70
25360;DHT22;13311;51.386;0.016;2023-05-19T14:33:25;20.20;66.80
25360;DHT22;13311;51.386;0.016;2023-05-19T14:38:26;20.20;66.90
25360;DHT22;13311;51.386;0.016;2023-05-19T14:43:26;20.30;67.00
25360;DHT22;13311;51.386;0.016;2023-05-19T14:48:27;20.50;66.50
25360;DHT22;13311;51.386;0.016;2023-05-19T14:53:28;20.80;66.90
25360;DHT22;13311;51.386;0.016;2023-05-19T14:58:29;20.80;66.60
25360;DHT22;13311;51.386;0.016;2023-05-19T15:03:30;20.40;66.30
25360;DHT22;13311;51.386;0.016;2023-05-19T15:08:30;20.30;67.20
25360;DHT22;13311;51.386;0.016;2023-05-19T15:13:31;20.40;67.70
25360;DHT22;13311;51.386;0.016;2023-05-19T15:18:32;20.30;67.00
25360;DHT22;13311;51.386;0.016;2023-05-19T15:23:33;20.20;66.80
25360;DHT22;13311;51.386;0.016;2023-05-19T15:28:34;20.20;69.40
25360;DHT22;13311;51.386;0.016;2023-05-19T15:33:34;19.80;71.40
25360;DHT22;13311;51.386;0.016;2023-05-19T15:38:36;19.80;70.10
25360;DHT22;13311;51.386;0.016;2023-05-19T15:43:37;19.80;72.10
25360;DHT22;13311;51.386;0.016;2023-05-19T15:48:38;19.70;72.60
25360;DHT22;13311;51.386;0.016;2023-05-19T15:53:39;19.50;73.50
25360;DHT22;13311;51.386;0.016;2023-05-19T15:58:39;19.50;73.80
25360;DHT22;13311;51.386;0.016;2023-05-19T16:03:40;19.40;72.80
25360;DHT22;13311;51.386;0.016;2023-05-19T16:08:41;19.40;73.20
25360;DHT22;13311;51.386;0.016;2023-05-19T16:13:42;19.30;73.60
25360;DHT22;13311;51.386;0.016;2023-05-19T16:18:43;19.50;73.70
25360;DHT22;13311;51.386;0.016;2023-05-19T16:23:44;19.50;74.70
25360;DHT22;13311;51.386;0.016;2023-05-19T16:28:44;19.00;75.90
25360;DHT22;13311;51.386;0.016;2023-05-19T16:33:45;18.80;77.50
25360;DHT22;13311;51.386;0.016;2023-05-19T16:38:46;18.80;76.20
25360;DHT22;13311;51.386;0.016;2023-05-19T16:43:46;18.80;77.50
25360;DHT22;13311;51.386;0.016;2023-05-19T16:48:47;18.90;76.70
25360;DHT22;13311;51.386;0.016;2023-05-19T16:53:48;18.70;76.90
25360;DHT22;13311;51.386;0.016;2023-05-19T16:58:49;18.30;78.00
25360;DHT22;13311;51.386;0.016;2023-05-19T17:03:49;18.30;78.40
25360;DHT22;13311;51.386;0.016;2023-05-19T17:08:50;18.30;78.30
25360;DHT22;13311;51.386;0.016;2023-05-19T17:13:51;18.40;78.40
25360;DHT22;13311;51.386;0.016;2023-05-19T17:18:51;18.30;78.80
25360;DHT22;13311;51.386;0.016;2023-05-19T17:23:52;18.30;78.50
25360;DHT22;13311;51.386;0.016;2023-05-19T17:28:53;18.40;79.20
25360;DHT22;13311;51.386;0.016;2023-05-19T17:33:54;18.20;79.20
25360;DHT22;13311;51.386;0.016;2023-05-19T17:38:55;18.00;80.70
25360;DHT22;13311;51.386;0.016;2023-05-19T17:43:55;18.00;80.70
25360;DHT22;13311;51.386;0.016;2023-05-19T17:48:56;18.00;80.80
25360;DHT22;13311;51.386;0.016;2023-05-19T17:53:57;17.70;80.70
25360;DHT22;13311;51.386;0.016;2023-05-19T17:58:59;17.70;80.40
25360;DHT22;13311;51.386;0.016;2023-05-19T18:04:00;17.80;79.40
25360;DHT22;13311;51.386;0.016;2023-05-19T18:09:02;17.80;79.10
25360;DHT22;13311;51.386;0.016;2023-05-19T18:14:05;17.60;79.20
25360;DHT22;13311;51.386;0.016;2023-05-19T18:19:06;17.60;79.20
25360;DHT22;13311;51.386;0.016;2023-05-19T18:24:06;17.60;78.70
25360;DHT22;13311;51.386;0.016;2023-05-19T18:29:08;17.80;78.20
25360;DHT22;13311;51.386;0.016;2023-05-19T18:34:10;17.90;76.70
25360;DHT22;13311;51.386;0.016;2023-05-19T18:39:10;17.80;76.90
25360;DHT22;13311;51.386;0.016;2023-05-19T18:44:11;17.50;77.40
25360;DHT22;13311;51.386;0.016;2023-05-19T18:49:12;17.20;77.70
25360;DHT22;13311;51.386;0.016;2023-05-19T18:54:13;17.00;78.00
25360;DHT22;13311;51.386;0.016;2023-05-19T18:59:14;17.00;78.40
25360;DHT22;13311;51.386;0.016;2023-05-19T19:04:14;17.00;78.50
25360;DHT22;13311;51.386;0.016;2023-05-19T19:09:16;16.90;78.30
25360;DHT22;13311;51.386;0.016;2023-05-19T19:14:16;16.90;77.60
25360;DHT22;13311;51.386;0.016;2023-05-19T19:19:18;16.60;77.90
25360;DHT22;13311;51.386;0.016;2023-05-19T19:24:19;16.60;78.40
25360;DHT22;13311;51.386;0.016;2023-05-19T19:29:20;16.50;79.00
25360;DHT22;13311;51.386;0.016;2023-05-19T19:34:21;16.40;78.90
25360;DHT22;13311;51.386;0.016;2023-05-19T19:39:22;16.40;78.70
25360;DHT22;13311;51.386;0.016;2023-05-19T19:44:22;16.30;78.70
25360;DHT22;13311;51.386;0.016;2023-05-19T19:49:23;16.30;78.70
25360;DHT22;13311;51.386;0.016;2023-05-19T19:54:25;16.20;79.10
25360;DHT22;13311;51.386;0.016;2023-05-19T19:59:25;16.10;79.50
25360;DHT22;13311;51.386;0.016;2023-05-19T20:04:26;15.80;80.60
25360;DHT22;13311;51.386;0.016;2023-05-19T20:09:27;15.70;80.90
25360;DHT22;13311;51.386;0.016;2023-05-19T20:14:28;15.70;81.30
25360;DHT22;13311;51.386;0.016;2023-05-19T20:19:28;15.70;81.70
25360;DHT22;13311;51.386;0.016;2023-05-19T20:24:30;15.70;81.90
25360;DHT22;13311;51.386;0.016;2023-05-19T20:29:30;15.70;82.00
25360;DHT22;13311;51.386;0.016;2023-05-19T20:34:31;15.70;81.90
25360;DHT22;13311;51.386;0.016;2023-05-19T20:39:32;15.70;82.20
25360;DHT22;13311;51.386;0.016;2023-05-19T20:44:33;15.70;82.50
25360;DHT22;13311;51.386;0.016;2023-05-19T20:49:34;15.60;82.80
25360;DHT22;13311;51.386;0.016;2023-05-19T20:54:35;15.50;83.20
25360;DHT22;13311;51.386;0.016;2023-05-19T20:59:36;15.40;83.40
25360;DHT22;13311;51.386;0.016;2023-05-19T21:04:37;15.40;83.80
25360;DHT22;13311;51.386;0.016;2023-05-19T21:09:38;15.30;83.70
25360;DHT22;13311;51.386;0.016;2023-05-19T21:14:39;15.30;82.90
25360;DHT22;13311;51.386;0.016;2023-05-19T21:19:40;15.20;83.10
25360;DHT22;13311;51.386;0.016;2023-05-19T21:24:40;15.10;83.00
25360;DHT22;13311;51.386;0.016;2023-05-19T21:29:41;15.10;82.80
25360;DHT22;13311;51.386;0.016;2023-05-19T21:34:42;15.00;82.90
25360;DHT22;13311;51.386;0.016;2023-05-19T21:39:43;15.00;83.00
25360;DHT22;13311;51.386;0.016;2023-05-19T21:44:44;14.90;83.10
25360;DHT22;13311;51.386;0.016;2023-05-19T21:49:44;14.90;83.50
25360;DHT22;13311;51.386;0.016;2023-05-19T21:54:45;14.90;83.60
25360;DHT22;13311;51.386;0.016;2023-05-19T21:59:47;14.90;84.00
25360;DHT22;13311;51.386;0.016;2023-05-19T22:04:48;14.80;83.60
25360;DHT22;13311;51.386;0.016;2023-05-19T22:09:48;14.80;83.40
25360;DHT22;13311;51.386;0.016;2023-05-19T22:14:49;14.70;82.80
25360;DHT22;13311;51.386;0.016;2023-05-19T22:19:51;14.70;82.80
25360;DHT22;13311;51.386;0.016;2023-05-19T22:24:52;14.60;82.70
25360;DHT22;13311;51.386;0.016;2023-05-19T22:29:53;14.50;83.00
25360;DHT22;13311;51.386;0.016;2023-05-19T22:34:53;14.50;83.00
25360;DHT22;13311;51.386;0.016;2023-05-19T22:39:54;14.50;83.10
25360;DHT22;13311;51.386;0.016;2023-05-19T22:44:55;14.40;82.90
25360;DHT22;13311;51.386;0.016;2023-05-19T22:49:56;14.40;83.00
25360;DHT22;13311;51.386;0.016;2023-05-19T22:54:56;14.40;83.40
25360;DHT22;13311;51.386;0.016;2023-05-19T22:59:57;14.30;82.90
25360;DHT22;13311;51.386;0.016;2023-05-19T23:04:58;14.20;83.10
25360;DHT22;13311;51.386;0.016;2023-05-19T23:09:58;14.30;83.60
25360;DHT22;13311;51.386;0.016;2023-05-19T23:14:59;14.10;83.60
25360;DHT22;13311;51.386;0.016;2023-05-19T23:20:00;14.10;83.70
25360;DHT22;13311;51.386;0.016;2023-05-19T23:25:01;14.00;84.00
25360;DHT22;13311;51.386;0.016;2023-05-19T23:30:07;14.00;83.80
25360;DHT22;13311;51.386;0.016;2023-05-19T23:35:12;14.00;84.00
25360;DHT22;13311;51.386;0.016;2023-05-19T23:40:15;14.00;83.90
25360;DHT22;13311;51.386;0.016;2023-05-19T23:45:16;14.00;83.90
25360;DHT22;13311;51.386;0.016;2023-05-19T23:50:17;14.00;84.00
25360;DHT22;13311;51.386;0.016;2023-05-19T23:55:17;13.90;84.00
